Time;durP1;ratioP1;P1;durP2;ratioP2;P2;SDS_P1;SDS_P2;PMS_P1;PMS_P2;Temp;Humidity;BMP_temperature;BMP_pressure;BME280_temperature;BME280_humidity;BME280_pressure;Samples;Min_cycle;Max_cycle;Signal;HPM_P1;HPM_P2
2023/08/25 00:00:33;;;;;;;4.57;4.17;;;21.10;99.90;;;;;;4972269;28;20518;-67
2023/08/25 00:02:58;;;;;;;4.63;4.33;;;21.10;99.90;;;;;;4978602;28;20446;-68
2023/08/25 00:05:24;;;;;;;6.30;3.93;;;21.10;99.90;;;;;;4984944;28;20204;-68
2023/08/25 00:07:49;;;;;;;4.07;3.77;;;21.20;99.90;;;;;;4980966;28;20195;-70
2023/08/25 00:10:15;;;;;;;3.90;3.70;;;21.20;99.90;;;;;;4981771;28;20557;-68
2023/08/25 00:12:41;;;;;;;6.00;4.47;;;21.20;99.90;;;;;;4973162;28;20205;-69
2023/08/25 00:15:07;;;;;;;3.87;3.57;;;21.30;99.90;;;;;;4975403;28;20358;-69
2023/08/25 00:17:33;;;;;;;4.47;3.87;;;21.30;99.90;;;;;;4982683;28;20195;-69
2023/08/25 00:19:59;;;;;;;8.80;3.77;;;21.30;99.90;;;;;;4975606;28;20439;-69
2023/08/25 00:22:25;;;;;;;4.30;4.00;;;21.30;99.90;;;;;;4989401;28;20665;-69
2023/08/25 00:24:52;;;;;;;5.80;4.40;;;21.30;99.90;;;;;;4976505;28;20445;-69
2023/08/25 00:27:19;;;;;;;4.33;3.93;;;21.40;99.90;;;;;;4979637;28;20215;-68
2023/08/25 00:29:44;;;;;;;4.03;3.73;;;21.40;99.90;;;;;;4970184;28;20576;-69
2023/08/25 00:32:10;;;;;;;3.77;3.20;;;21.50;99.90;;;;;;4983115;28;20434;-69
2023/08/25 00:34:35;;;;;;;3.90;3.60;;;21.40;99.90;;;;;;4986120;28;20179;-69
2023/08/25 00:37:01;;;;;;;4.83;3.90;;;21.40;99.90;;;;;;4974479;28;22030;-69
2023/08/25 00:39:26;;;;;;;4.40;4.00;;;21.40;99.90;;;;;;4978856;28;20623;-69
2023/08/25 00:41:54;;;;;;;3.40;3.17;;;21.30;99.90;;;;;;4977313;28;20557;-69
2023/08/25 00:44:19;;;;;;;6.90;3.87;;;21.30;99.90;;;;;;4977300;28;20180;-69
2023/08/25 00:46:45;;;;;;;4.20;3.80;;;21.30;99.90;;;;;;4971327;28;20471;-69
2023/08/25 00:49:11;;;;;;;4.10;3.70;;;21.20;99.90;;;;;;4978853;28;20215;-69
2023/08/25 00:51:37;;;;;;;4.43;4.03;;;21.30;99.90;;;;;;4973414;28;20177;-70
2023/08/25 00:54:03;;;;;;;6.17;4.43;;;21.30;99.90;;;;;;4984708;28;20171;-69
2023/08/25 00:56:29;;;;;;;3.87;3.57;;;21.20;99.90;;;;;;4972603;28;20270;-70
2023/08/25 00:58:55;;;;;;;6.33;4.43;;;21.30;99.90;;;;;;4971691;28;20534;-69
2023/08/25 01:01:20;;;;;;;3.60;3.37;;;21.20;99.90;;;;;;4971771;28;20622;-69
2023/08/25 01:03:48;;;;;;;4.13;3.83;;;21.10;99.90;;;;;;4971933;28;20235;-70
2023/08/25 01:06:13;;;;;;;3.80;3.47;;;21.10;99.90;;;;;;4972992;28;20554;-69
2023/08/25 01:08:39;;;;;;;3.73;3.43;;;21.20;99.90;;;;;;4972522;28;20427;-69
2023/08/25 01:11:39;;;;;;;4.13;3.83;;;21.30;99.90;;;;;;4971899;28;20203;-69
2023/08/25 01:14:04;;;;;;;4.60;4.10;;;21.30;99.90;;;;;;4966802;28;20933;-69
2023/08/25 01:16:37;;;;;;;5.50;3.73;;;21.30;99.90;;;;;;4971850;28;20598;-69
2023/08/25 01:19:05;;;;;;;4.20;3.90;;;21.20;99.90;;;;;;4975221;28;20214;-70
2023/08/25 01:21:34;;;;;;;7.50;3.73;;;21.20;99.90;;;;;;4981357;28;20497;-70
2023/08/25 01:24:06;;;;;;;3.73;3.40;;;21.20;99.90;;;;;;4969008;28;20466;-70
2023/08/25 01:26:31;;;;;;;4.20;3.80;;;21.20;99.90;;;;;;4972553;28;20494;-69
2023/08/25 01:28:57;;;;;;;4.67;3.90;;;21.20;99.90;;;;;;4971883;28;20443;-69
2023/08/25 01:31:22;;;;;;;3.87;3.57;;;21.30;99.90;;;;;;4979195;28;20185;-70
2023/08/25 01:33:49;;;;;;;5.40;4.97;;;21.20;99.90;;;;;;4978178;28;20227;-69
2023/08/25 01:36:28;;;;;;;8.10;4.07;;;21.10;99.90;;;;;;4972023;28;20273;-71
2023/08/25 01:39:00;;;;;;;4.70;3.53;;;21.20;99.90;;;;;;4978636;28;20449;-69
2023/08/25 01:41:32;;;;;;;5.83;3.77;;;21.20;99.90;;;;;;4988891;28;20496;-70
2023/08/25 01:44:02;;;;;;;9.40;3.57;;;21.30;99.90;;;;;;4974952;28;20446;-70
2023/08/25 01:46:29;;;;;;;10.03;3.60;;;21.40;99.90;;;;;;4981373;28;20550;-70
2023/08/25 01:48:57;;;;;;;4.57;3.70;;;21.30;99.90;;;;;;4982390;28;20447;-69
2023/08/25 01:51:23;;;;;;;4.00;3.70;;;21.40;99.90;;;;;;4969980;28;20922;-70
2023/08/25 01:53:56;;;;;;;14.03;4.00;;;21.40;99.90;;;;;;4972059;28;20522;-67
2023/08/25 01:56:22;;;;;;;4.17;3.63;;;21.30;99.90;;;;;;4980656;28;20203;-69
2023/08/25 01:58:48;;;;;;;4.47;3.60;;;21.20;99.90;;;;;;4971920;28;20512;-69
2023/08/25 02:01:14;;;;;;;5.13;3.70;;;21.20;99.90;;;;;;4972013;28;20447;-69
2023/08/25 02:03:39;;;;;;;5.10;3.20;;;21.10;99.90;;;;;;4974217;28;20455;-70
2023/08/25 02:06:05;;;;;;;4.20;3.90;;;21.10;99.90;;;;;;4974117;28;20223;-70
2023/08/25 02:08:30;;;;;;;3.73;3.47;;;21.00;99.90;;;;;;4984587;28;20260;-70
2023/08/25 02:10:56;;;;;;;3.90;3.60;;;21.20;99.90;;;;;;4977624;28;20184;-69
2023/08/25 02:13:21;;;;;;;4.13;3.83;;;21.30;99.90;;;;;;4974347;28;20195;-69
2023/08/25 02:15:49;;;;;;;3.17;2.97;;;21.30;99.90;;;;;;4974816;28;20700;-70
2023/08/25 02:18:14;;;;;;;4.60;3.33;;;21.30;99.90;;;;;;4974325;28;20192;-69
2023/08/25 02:20:40;;;;;;;5.60;4.00;;;21.30;99.90;;;;;;4983194;28;20458;-69
2023/08/25 02:23:09;;;;;;;4.53;4.13;;;21.40;99.90;;;;;;4989945;28;20230;-69
2023/08/25 02:25:35;;;;;;;5.83;4.50;;;21.40;99.90;;;;;;4979250;28;20709;-70
2023/08/25 02:28:00;;;;;;;4.13;3.17;;;21.30;99.90;;;;;;4983634;28;20486;-69
2023/08/25 02:30:26;;;;;;;6.30;3.83;;;21.30;99.90;;;;;;4982398;28;20242;-70
2023/08/25 02:32:51;;;;;;;4.97;3.87;;;21.40;99.90;;;;;;4981716;28;20200;-70
2023/08/25 02:35:17;;;;;;;5.77;4.47;;;21.30;99.90;;;;;;4971671;28;20727;-69
2023/08/25 02:38:01;;;;;;;3.97;3.47;;;21.20;99.90;;;;;;4974413;28;20188;-70
2023/08/25 02:40:27;;;;;;;5.03;3.80;;;21.20;99.90;;;;;;4980863;28;20196;-70
2023/08/25 02:42:54;;;;;;;4.10;3.70;;;21.10;99.90;;;;;;4987736;28;20483;-70
2023/08/25 02:45:22;;;;;;;4.40;3.47;;;21.10;99.90;;;;;;4980624;28;21009;-70
2023/08/25 02:47:47;;;;;;;5.00;4.50;;;21.10;99.90;;;;;;4986467;28;21032;-69
2023/08/25 02:50:13;;;;;;;4.67;4.23;;;21.00;99.90;;;;;;4974429;28;20538;-70
2023/08/25 02:52:39;;;;;;;4.63;3.83;;;21.00;99.90;;;;;;4973914;28;20184;-70
2023/08/25 02:55:05;;;;;;;4.00;3.70;;;20.90;99.90;;;;;;4979103;28;20805;-70
2023/08/25 02:57:31;;;;;;;5.27;3.80;;;20.90;99.90;;;;;;4983088;28;20752;-70
2023/08/25 02:59:56;;;;;;;4.50;3.80;;;20.80;99.90;;;;;;4981718;28;20490;-70
2023/08/25 03:02:22;;;;;;;8.73;4.60;;;20.80;99.90;;;;;;4976929;28;20207;-71
2023/08/25 03:04:47;;;;;;;4.10;3.67;;;20.80;99.90;;;;;;4987111;28;20183;-70
2023/08/25 03:07:13;;;;;;;5.30;4.83;;;20.70;99.90;;;;;;4975381;28;20219;-70
2023/08/25 03:09:38;;;;;;;4.60;3.70;;;20.80;99.90;;;;;;4973829;28;20177;-70
2023/08/25 03:12:04;;;;;;;5.90;4.20;;;20.80;99.90;;;;;;4986336;28;20200;-70
2023/08/25 03:14:30;;;;;;;3.97;3.67;;;20.80;99.90;;;;;;4985271;28;20219;-70
2023/08/25 03:16:55;;;;;;;5.00;4.50;;;20.70;99.90;;;;;;4978723;28;20470;-70
2023/08/25 03:19:22;;;;;;;4.63;4.30;;;20.70;99.90;;;;;;4989849;28;20695;-70
2023/08/25 03:21:47;;;;;;;4.80;4.33;;;20.60;99.90;;;;;;4981834;28;20530;-71
2023/08/25 03:24:13;;;;;;;7.20;6.70;;;20.60;99.90;;;;;;4973392;28;20199;-70
2023/08/25 03:26:38;;;;;;;5.70;4.10;;;20.60;99.90;;;;;;4973916;28;20670;-69
2023/08/25 03:29:04;;;;;;;4.03;3.70;;;20.60;99.90;;;;;;4981074;28;20657;-70
2023/08/25 03:31:30;;;;;;;4.23;3.93;;;20.60;99.90;;;;;;4985821;28;20673;-70
2023/08/25 03:33:55;;;;;;;4.37;3.97;;;20.60;99.90;;;;;;4980903;28;20642;-70
2023/08/25 03:36:21;;;;;;;5.23;4.10;;;20.60;99.90;;;;;;4981185;28;20624;-71
2023/08/25 03:38:46;;;;;;;4.63;4.27;;;20.50;99.90;;;;;;4981373;28;20188;-70
2023/08/25 03:41:12;;;;;;;5.27;4.13;;;20.50;99.90;;;;;;4973416;28;20175;-69
2023/08/25 03:43:37;;;;;;;4.30;3.97;;;20.50;99.90;;;;;;4981629;28;20181;-70
2023/08/25 03:46:03;;;;;;;5.00;4.03;;;20.50;99.90;;;;;;4980683;28;20210;-70
2023/08/25 03:48:29;;;;;;;5.50;4.73;;;20.50;99.90;;;;;;4976468;28;20564;-70
2023/08/25 03:50:55;;;;;;;5.60;4.70;;;20.80;99.90;;;;;;4993452;28;20427;-70
2023/08/25 03:53:20;;;;;;;6.70;4.60;;;20.60;99.90;;;;;;4978571;28;20180;-71
2023/08/25 03:55:46;;;;;;;6.37;4.33;;;20.50;99.90;;;;;;4976055;28;20207;-70
2023/08/25 03:58:12;;;;;;;4.40;4.10;;;20.60;99.90;;;;;;4975197;28;20192;-71
2023/08/25 04:00:38;;;;;;;4.63;4.33;;;20.50;99.90;;;;;;4989899;28;20175;-70
2023/08/25 04:03:06;;;;;;;4.27;3.97;;;20.50;99.90;;;;;;4973978;28;20462;-70
2023/08/25 04:05:34;;;;;;;5.20;4.37;;;20.50;99.90;;;;;;4973864;28;20279;-70
2023/08/25 04:08:00;;;;;;;5.20;4.27;;;20.40;99.90;;;;;;4972457;28;20875;-71
2023/08/25 04:10:26;;;;;;;5.47;4.97;;;20.40;99.90;;;;;;4972024;28;20515;-71
2023/08/25 04:12:51;;;;;;;6.10;4.70;;;20.30;99.90;;;;;;4976868;28;20899;-70
2023/08/25 04:15:20;;;;;;;4.30;4.00;;;20.30;99.90;;;;;;4977291;28;20463;-70
2023/08/25 04:17:46;;;;;;;7.83;4.17;;;20.30;99.90;;;;;;4972674;28;20200;-70
2023/08/25 04:20:11;;;;;;;5.10;4.60;;;20.20;99.90;;;;;;4971413;28;20479;-70
2023/08/25 04:22:40;;;;;;;5.90;4.60;;;20.10;99.90;;;;;;4974739;28;20190;-70
2023/08/25 04:25:06;;;;;;;6.83;4.00;;;20.10;99.90;;;;;;4979368;28;20214;-70
2023/08/25 04:27:32;;;;;;;4.43;4.03;;;20.00;99.90;;;;;;4983247;28;20592;-70
2023/08/25 04:29:57;;;;;;;6.30;4.67;;;20.00;99.90;;;;;;4978348;28;20642;-71
2023/08/25 04:32:23;;;;;;;5.53;4.73;;;20.00;99.90;;;;;;4979801;28;20729;-70
2023/08/25 04:34:48;;;;;;;6.63;4.90;;;20.40;99.90;;;;;;4971156;28;20184;-70
2023/08/25 04:37:14;;;;;;;5.87;5.33;;;20.00;99.90;;;;;;4981134;28;20191;-70
2023/08/25 04:39:40;;;;;;;4.90;4.37;;;20.10;99.90;;;;;;4974902;28;20184;-70
2023/08/25 04:42:06;;;;;;;8.33;5.77;;;20.10;99.90;;;;;;4971625;28;20176;-70
2023/08/25 04:44:31;;;;;;;6.17;4.03;;;20.10;99.90;;;;;;4973186;28;20434;-70
2023/08/25 04:46:57;;;;;;;7.50;4.50;;;20.20;99.90;;;;;;4976376;28;20230;-71
2023/08/25 04:49:22;;;;;;;4.83;3.80;;;20.20;99.90;;;;;;4980149;28;20198;-71
2023/08/25 04:51:48;;;;;;;5.13;4.20;;;20.20;99.90;;;;;;4974065;28;20172;-70
2023/08/25 04:54:14;;;;;;;6.30;4.80;;;20.10;99.90;;;;;;4980788;28;20183;-70
2023/08/25 04:56:39;;;;;;;5.63;4.60;;;20.10;99.90;;;;;;4971593;28;20479;-71
2023/08/25 04:59:05;;;;;;;5.67;5.13;;;20.10;99.90;;;;;;4970976;28;20284;-70
2023/08/25 05:01:31;;;;;;;6.43;5.30;;;20.20;99.90;;;;;;4972990;28;20658;-68
2023/08/25 05:03:56;;;;;;;5.40;4.60;;;20.30;99.90;;;;;;4968545;28;20182;-71
2023/08/25 05:06:22;;;;;;;4.90;4.60;;;20.30;99.90;;;;;;4972727;28;20199;-70
2023/08/25 05:08:47;;;;;;;5.93;4.50;;;20.40;99.90;;;;;;4971381;28;20661;-70
2023/08/25 05:11:13;;;;;;;6.07;5.20;;;20.60;99.90;;;;;;4972230;28;20227;-71
2023/08/25 05:13:39;;;;;;;6.10;5.50;;;20.70;99.90;;;;;;4971199;28;20177;-70
2023/08/25 05:16:05;;;;;;;7.80;4.50;;;20.60;99.90;;;;;;4975531;28;20486;-71
2023/08/25 05:18:31;;;;;;;5.83;4.60;;;20.60;99.90;;;;;;4979252;28;20650;-71
2023/08/25 05:21:01;;;;;;;4.80;4.40;;;20.80;99.90;;;;;;4969197;28;20176;-70
2023/08/25 05:23:27;;;;;;;7.27;5.00;;;20.80;99.90;;;;;;4967472;28;20470;-70
2023/08/25 05:25:53;;;;;;;5.77;4.90;;;21.00;99.90;;;;;;4972667;28;20470;-70
2023/08/25 05:28:19;;;;;;;4.30;4.00;;;21.10;99.90;;;;;;4980377;28;20443;-70
2023/08/25 05:30:48;;;;;;;4.23;3.83;;;21.30;99.90;;;;;;4975223;28;20438;-70
2023/08/25 05:33:14;;;;;;;12.07;4.43;;;21.60;99.90;;;;;;4969479;28;20196;-71
2023/08/25 05:35:40;;;;;;;9.77;4.43;;;21.80;99.90;;;;;;4981589;28;20454;-71
2023/08/25 05:38:05;;;;;;;5.80;4.43;;;21.90;99.90;;;;;;4989314;28;20431;-71
2023/08/25 05:40:31;;;;;;;4.57;3.90;;;22.20;99.90;;;;;;4995481;28;20255;-70
2023/08/25 05:42:56;;;;;;;4.90;4.50;;;22.30;99.90;;;;;;4975645;28;20183;-70
2023/08/25 05:45:22;;;;;;;4.00;3.53;;;22.40;99.90;;;;;;4976228;28;20200;-69
2023/08/25 05:47:48;;;;;;;5.83;4.87;;;22.40;99.90;;;;;;4983536;28;20254;-68
2023/08/25 05:50:13;;;;;;;4.93;4.33;;;22.50;99.90;;;;;;4977222;28;20176;-68
2023/08/25 05:52:41;;;;;;;8.00;5.63;;;22.60;99.90;;;;;;4976452;28;20173;-73
2023/08/25 05:55:07;;;;;;;6.07;5.43;;;22.80;99.90;;;;;;4975854;28;20279;-70
2023/08/25 05:57:33;;;;;;;4.87;4.47;;;22.90;99.90;;;;;;4976163;28;20419;-71
2023/08/25 05:59:58;;;;;;;5.37;4.73;;;23.00;99.90;;;;;;4975416;28;20507;-71
2023/08/25 06:02:24;;;;;;;5.93;4.43;;;23.00;99.90;;;;;;4974078;28;20191;-71
2023/08/25 06:04:50;;;;;;;7.07;5.07;;;23.00;99.90;;;;;;4987787;28;20175;-71
2023/08/25 06:07:15;;;;;;;5.20;3.70;;;23.10;99.90;;;;;;4978732;28;20262;-70
2023/08/25 06:09:41;;;;;;;5.70;3.90;;;22.90;99.90;;;;;;4982441;28;20191;-71
2023/08/25 06:12:07;;;;;;;4.53;4.23;;;22.90;99.90;;;;;;4975230;28;20168;-69
2023/08/25 06:14:35;;;;;;;4.60;4.30;;;22.90;99.90;;;;;;4974325;28;20439;-69
2023/08/25 06:17:01;;;;;;;9.80;4.70;;;22.90;99.90;;;;;;4974509;28;20519;-70
2023/08/25 06:19:26;;;;;;;5.80;4.37;;;22.80;99.90;;;;;;4977307;28;20952;-69
2023/08/25 06:21:52;;;;;;;5.90;4.57;;;22.50;99.90;;;;;;4995301;28;20445;-69
2023/08/25 06:24:17;;;;;;;5.50;5.00;;;22.20;99.90;;;;;;4983077;28;20182;-70
2023/08/25 06:26:43;;;;;;;5.17;4.67;;;22.00;99.90;;;;;;4974976;28;20295;-70
2023/08/25 06:29:09;;;;;;;8.63;5.30;;;22.00;99.90;;;;;;4976453;28;20541;-69
2023/08/25 06:31:34;;;;;;;7.37;5.13;;;22.20;99.90;;;;;;4966622;28;20605;-70
2023/08/25 06:34:03;;;;;;;6.90;6.40;;;21.80;99.90;;;;;;4974653;28;20581;-71
2023/08/25 06:36:30;;;;;;;8.47;5.70;;;21.60;99.90;;;;;;4977790;28;20203;-70
2023/08/25 06:38:56;;;;;;;5.43;4.93;;;21.60;99.90;;;;;;4971560;28;20443;-70
2023/08/25 06:41:22;;;;;;;5.40;4.90;;;21.60;99.90;;;;;;4974077;28;20435;-70
2023/08/25 06:43:47;;;;;;;5.90;4.40;;;21.60;99.90;;;;;;4975361;28;20846;-70
2023/08/25 06:46:13;;;;;;;4.67;4.27;;;21.50;99.90;;;;;;4972698;28;20248;-70
2023/08/25 06:48:38;;;;;;;6.37;5.17;;;21.50;99.90;;;;;;4980817;28;20553;-69
2023/08/25 06:51:03;;;;;;;5.40;4.90;;;21.50;99.90;;;;;;4970251;28;20184;-71
2023/08/25 06:53:29;;;;;;;8.23;4.90;;;21.40;99.90;;;;;;4973621;28;20184;-70
2023/08/25 06:55:55;;;;;;;6.70;5.10;;;21.10;99.90;;;;;;4974723;28;20235;-70
2023/08/25 06:58:20;;;;;;;5.33;4.87;;;20.90;99.90;;;;;;4974365;28;20694;-70
2023/08/25 07:00:47;;;;;;;6.70;6.10;;;20.70;99.90;;;;;;4975016;28;20253;-71
2023/08/25 07:03:13;;;;;;;5.93;5.30;;;20.60;99.90;;;;;;4982963;28;20234;-70
2023/08/25 07:05:38;;;;;;;6.13;5.10;;;20.40;99.90;;;;;;4974901;28;20444;-69
2023/08/25 07:08:07;;;;;;;6.00;5.50;;;20.30;99.90;;;;;;4973747;28;20461;-70
2023/08/25 07:10:33;;;;;;;5.70;5.20;;;20.20;99.90;;;;;;4977494;28;20184;-70
2023/08/25 07:12:58;;;;;;;5.30;4.90;;;20.20;99.90;;;;;;4977148;28;21051;-71
2023/08/25 07:15:24;;;;;;;6.70;6.10;;;20.20;99.90;;;;;;4974494;28;20578;-70
2023/08/25 07:17:49;;;;;;;7.30;5.83;;;20.10;99.90;;;;;;4974744;28;20207;-71
2023/08/25 07:20:15;;;;;;;6.57;5.57;;;20.10;99.90;;;;;;4973993;28;20173;-70
2023/08/25 07:22:40;;;;;;;7.30;6.70;;;20.00;99.90;;;;;;4974635;28;20168;-71
2023/08/25 07:25:06;;;;;;;6.83;5.27;;;20.00;99.90;;;;;;4979526;28;20692;-68
2023/08/25 07:27:32;;;;;;;7.63;5.50;;;19.90;99.90;;;;;;4985693;28;20206;-69
2023/08/25 07:29:58;;;;;;;7.57;6.83;;;19.80;99.90;;;;;;4971490;28;20447;-69
2023/08/25 07:32:24;;;;;;;7.50;6.30;;;19.80;99.90;;;;;;4970194;28;21000;-69
2023/08/25 07:34:50;;;;;;;7.63;6.07;;;19.70;99.90;;;;;;4972574;28;20563;-68
2023/08/25 07:37:16;;;;;;;9.80;6.73;;;19.60;99.90;;;;;;4971636;28;20529;-69
2023/08/25 07:39:42;;;;;;;7.30;6.63;;;19.60;99.90;;;;;;4975317;28;20179;-68
2023/08/25 07:42:08;;;;;;;10.93;6.80;;;19.60;99.90;;;;;;4978161;28;20188;-68
2023/08/25 07:44:37;;;;;;;9.33;7.00;;;19.60;99.90;;;;;;4981169;28;20202;-67
2023/08/25 07:47:04;;;;;;;7.93;6.17;;;19.60;99.90;;;;;;4973288;28;20542;-68
2023/08/25 07:49:30;;;;;;;7.17;6.47;;;19.50;99.90;;;;;;4973361;28;20420;-68
2023/08/25 07:51:56;;;;;;;7.63;6.10;;;19.50;99.90;;;;;;4973123;28;20498;-68
2023/08/25 07:54:21;;;;;;;6.23;5.73;;;19.50;99.90;;;;;;4974047;28;20937;-68
2023/08/25 07:56:47;;;;;;;5.97;5.37;;;19.50;99.90;;;;;;4973791;28;20214;-66
2023/08/25 07:59:12;;;;;;;7.83;5.93;;;19.40;99.90;;;;;;4979177;28;20183;-68
2023/08/25 08:01:38;;;;;;;6.47;5.97;;;19.40;99.90;;;;;;4981902;28;20230;-68
2023/08/25 08:04:04;;;;;;;7.63;6.60;;;19.50;99.90;;;;;;4973866;28;20176;-68
2023/08/25 08:06:29;;;;;;;8.37;6.67;;;19.50;99.90;;;;;;4972698;28;20207;-68
2023/08/25 08:08:55;;;;;;;6.50;5.83;;;19.50;99.90;;;;;;4971017;28;20183;-67
2023/08/25 08:11:21;;;;;;;6.80;5.30;;;19.50;99.90;;;;;;4971971;28;20179;-68
2023/08/25 08:13:47;;;;;;;6.80;5.53;;;19.50;99.90;;;;;;4978560;28;20435;-68
2023/08/25 08:16:13;;;;;;;6.27;5.77;;;19.50;99.90;;;;;;4975732;28;20282;-67
2023/08/25 08:18:39;;;;;;;7.13;5.20;;;19.50;99.90;;;;;;4972638;28;20177;-67
2023/08/25 08:21:04;;;;;;;6.90;6.10;;;19.40;99.90;;;;;;4978494;28;20434;-67
2023/08/25 08:23:30;;;;;;;16.03;7.37;;;19.40;99.90;;;;;;4978086;28;20184;-69
2023/08/25 08:25:55;;;;;;;7.20;6.03;;;19.30;99.90;;;;;;4969653;28;20196;-67
2023/08/25 08:28:22;;;;;;;7.73;6.07;;;19.30;99.90;;;;;;4968623;28;20654;-68
2023/08/25 08:30:47;;;;;;;10.50;5.90;;;19.20;99.90;;;;;;4986983;28;20549;-68
2023/08/25 08:33:13;;;;;;;12.20;7.40;;;19.20;99.90;;;;;;4972824;28;20510;-68
2023/08/25 08:35:40;;;;;;;7.33;6.63;;;19.10;99.90;;;;;;4979352;28;20231;-69
2023/08/25 08:38:05;;;;;;;7.10;6.40;;;19.10;99.90;;;;;;4969146;28;20176;-68
2023/08/25 08:40:31;;;;;;;6.77;6.00;;;19.20;99.90;;;;;;4981761;28;20434;-67
2023/08/25 08:43:02;;;;;;;10.57;8.60;;;19.30;99.90;;;;;;4989130;28;21907;-67
2023/08/25 08:45:34;;;;;;;11.07;8.77;;;19.30;99.90;;;;;;4972216;28;20465;-67
2023/08/25 08:48:00;;;;;;;8.53;6.43;;;19.40;99.90;;;;;;4989471;28;20458;-67
2023/08/25 08:50:26;;;;;;;5.47;5.03;;;19.50;99.90;;;;;;4974894;28;20460;-67
2023/08/25 08:52:53;;;;;;;12.00;7.60;;;19.60;99.90;;;;;;4970448;28;20475;-66
2023/08/25 08:55:20;;;;;;;10.33;9.20;;;19.60;99.90;;;;;;4971835;28;20200;-69
2023/08/25 08:57:45;;;;;;;9.90;8.90;;;19.50;99.90;;;;;;4970850;28;20478;-68
2023/08/25 09:00:12;;;;;;;9.93;7.97;;;19.50;99.90;;;;;;4978046;28;20466;-69
2023/08/25 09:02:43;;;;;;;10.40;7.10;;;19.60;99.90;;;;;;4976612;28;20561;-67
2023/08/25 09:05:12;;;;;;;6.33;5.80;;;19.60;99.90;;;;;;4969924;28;20832;-67
2023/08/25 09:07:39;;;;;;;8.43;7.60;;;19.50;99.90;;;;;;4979833;28;20478;-67
2023/08/25 09:10:05;;;;;;;6.80;5.90;;;19.60;99.90;;;;;;4970618;28;20478;-67
2023/08/25 09:12:31;;;;;;;6.60;6.10;;;19.50;99.90;;;;;;4976947;28;20431;-67
2023/08/25 09:14:56;;;;;;;6.97;6.37;;;19.30;99.90;;;;;;4985985;28;20467;-67
2023/08/25 09:17:22;;;;;;;9.60;6.60;;;19.30;99.90;;;;;;4978837;28;20199;-67
2023/08/25 09:19:48;;;;;;;7.10;6.50;;;19.20;99.90;;;;;;4986007;28;20553;-67
2023/08/25 09:22:16;;;;;;;7.90;6.70;;;19.30;99.90;;;;;;4973640;28;20184;-68
2023/08/25 09:24:43;;;;;;;7.40;6.70;;;19.30;99.90;;;;;;4972412;28;20438;-68
2023/08/25 09:27:26;;;;;;;6.33;5.83;;;19.30;99.90;;;;;;4977751;28;20476;-67
2023/08/25 09:30:06;;;;;;;8.20;7.00;;;19.50;99.90;;;;;;4959268;28;20835;-68
2023/08/25 09:32:32;;;;;;;9.77;7.27;;;19.50;99.90;;;;;;4978757;28;20823;-68
2023/08/25 09:35:15;;;;;;;7.37;6.60;;;19.60;99.90;;;;;;4984234;28;20454;-69
2023/08/25 09:37:41;;;;;;;10.30;8.23;;;19.70;99.90;;;;;;4974192;28;20509;-68
2023/08/25 09:40:17;;;;;;;8.40;6.13;;;19.90;99.90;;;;;;4975455;28;20447;-69
2023/08/25 09:42:43;;;;;;;7.93;7.17;;;20.00;99.90;;;;;;4977867;28;20470;-68
2023/08/25 09:45:10;;;;;;;9.40;6.27;;;20.10;99.90;;;;;;4978090;28;20490;-68
2023/08/25 09:47:37;;;;;;;6.03;5.60;;;20.30;99.90;;;;;;4976946;28;20223;-68
2023/08/25 09:50:02;;;;;;;6.30;5.70;;;20.40;99.90;;;;;;4974546;28;20995;-68
2023/08/25 09:52:33;;;;;;;6.93;5.57;;;20.60;99.90;;;;;;4987101;28;20443;-68
2023/08/25 09:54:59;;;;;;;7.10;5.13;;;20.90;99.90;;;;;;4978798;28;20192;-68
2023/08/25 09:57:25;;;;;;;5.77;4.73;;;21.30;99.90;;;;;;4975550;28;20435;-68
2023/08/25 09:59:51;;;;;;;5.83;5.23;;;21.70;99.90;;;;;;4983330;28;20179;-70
2023/08/25 10:02:18;;;;;;;7.50;6.90;;;22.00;99.90;;;;;;4982475;28;20188;-68
2023/08/25 10:04:43;;;;;;;4.87;4.47;;;22.30;99.90;;;;;;4976032;28;20957;-68
2023/08/25 10:07:10;;;;;;;5.73;5.03;;;22.20;99.90;;;;;;4974847;28;20528;-69
2023/08/25 10:09:35;;;;;;;4.90;4.50;;;22.00;99.90;;;;;;4983678;28;20542;-68
2023/08/25 10:12:02;;;;;;;5.03;4.63;;;22.00;99.90;;;;;;4975930;28;20431;-68
2023/08/25 10:14:32;;;;;;;5.10;4.70;;;22.00;99.90;;;;;;4976156;28;20183;-68
2023/08/25 10:17:00;;;;;;;5.73;5.23;;;22.00;99.90;;;;;;4974963;28;20845;-68
2023/08/25 10:19:31;;;;;;;5.17;4.67;;;22.10;99.90;;;;;;4972407;28;20443;-68
2023/08/25 10:21:58;;;;;;;6.30;5.23;;;22.50;99.90;;;;;;4972748;28;20451;-68
2023/08/25 10:24:28;;;;;;;5.23;4.73;;;22.80;99.90;;;;;;4972089;28;20435;-68
2023/08/25 10:26:54;;;;;;;5.00;4.10;;;22.80;99.90;;;;;;4964415;28;20846;-68
2023/08/25 10:29:22;;;;;;;4.97;4.53;;;22.70;99.90;;;;;;4970148;28;20468;-71
2023/08/25 10:31:49;;;;;;;5.17;4.67;;;22.50;99.90;;;;;;4969728;28;20471;-73
2023/08/25 10:34:34;;;;;;;6.17;4.10;;;22.50;99.90;;;;;;4973879;28;20440;-71
2023/08/25 10:37:07;;;;;;;4.77;3.97;;;22.40;99.90;;;;;;4972850;28;20435;-72
2023/08/25 10:39:48;;;;;;;5.97;5.47;;;22.40;99.90;;;;;;4972184;28;20436;-74
2023/08/25 10:42:19;;;;;;;4.87;4.37;;;22.30;99.90;;;;;;4972149;28;20523;-75
2023/08/25 10:44:46;;;;;;;6.00;5.23;;;22.00;99.90;;;;;;4984204;28;20442;-74
2023/08/25 10:47:11;;;;;;;4.77;4.47;;;21.80;99.90;;;;;;4973045;28;20471;-74
2023/08/25 10:49:38;;;;;;;6.73;4.80;;;22.00;99.90;;;;;;4973600;28;20463;-74
2023/08/25 10:52:15;;;;;;;4.53;4.23;;;21.80;99.90;;;;;;4977117;28;20664;-72
2023/08/25 10:54:44;;;;;;;5.13;4.63;;;21.90;99.90;;;;;;4974495;28;20500;-74
2023/08/25 10:57:27;;;;;;;5.33;4.40;;;22.10;99.90;;;;;;4970539;28;21475;-75
2023/08/25 11:00:17;;;;;;;5.10;4.70;;;22.30;99.90;;;;;;4985027;28;20450;-75
2023/08/25 11:02:42;;;;;;;6.80;4.60;;;22.50;99.90;;;;;;4974551;28;20482;-75
2023/08/25 11:05:26;;;;;;;8.20;7.40;;;22.60;99.90;;;;;;4974874;28;20471;-75
2023/08/25 11:07:53;;;;;;;5.37;4.87;;;22.80;99.90;;;;;;4971329;28;20677;-74
2023/08/25 11:10:21;;;;;;;7.90;4.67;;;23.00;99.90;;;;;;4973289;28;20436;-75
2023/08/25 11:12:51;;;;;;;5.40;4.90;;;23.00;99.90;;;;;;4974854;28;20431;-75
2023/08/25 11:15:17;;;;;;;4.40;4.10;;;23.00;99.90;;;;;;4971427;28;20521;-75
2023/08/25 11:17:44;;;;;;;8.73;5.87;;;23.00;99.90;;;;;;4975261;28;20446;-75
2023/08/25 11:20:10;;;;;;;5.43;4.93;;;22.90;99.90;;;;;;4970115;28;20459;-75
2023/08/25 11:22:36;;;;;;;6.90;4.50;;;22.90;99.90;;;;;;4972366;28;20527;-75
2023/08/25 11:25:12;;;;;;;5.30;4.90;;;23.00;99.90;;;;;;4970284;28;21018;-75
2023/08/25 11:27:38;;;;;;;6.27;5.67;;;23.00;99.90;;;;;;4977314;28;20250;-75
2023/08/25 11:30:08;;;;;;;5.70;5.20;;;23.20;99.90;;;;;;4970816;28;20474;-75
2023/08/25 11:32:34;;;;;;;5.90;5.30;;;23.40;99.90;;;;;;4969279;28;20192;-75
2023/08/25 11:35:03;;;;;;;6.17;5.67;;;23.60;99.90;;;;;;4967019;28;20960;-75
2023/08/25 11:37:28;;;;;;;7.53;6.00;;;23.80;99.90;;;;;;4970319;28;20188;-75
2023/08/25 11:39:54;;;;;;;7.23;5.90;;;24.00;99.90;;;;;;4976223;28;20951;-75
2023/08/25 11:42:21;;;;;;;6.40;5.87;;;24.00;99.90;;;;;;4980298;28;20187;-75
2023/08/25 11:44:46;;;;;;;7.27;5.80;;;24.00;99.90;;;;;;4983873;28;20189;-75
2023/08/25 11:47:12;;;;;;;7.53;6.07;;;24.00;99.90;;;;;;4964218;28;20489;-75
2023/08/25 11:49:39;;;;;;;6.57;5.60;;;23.90;99.90;;;;;;4966971;28;20195;-75
2023/08/25 11:52:08;;;;;;;6.50;6.00;;;23.90;99.90;;;;;;4976251;28;20182;-75
2023/08/25 11:54:45;;;;;;;5.90;5.40;;;23.90;99.90;;;;;;4984693;28;20932;-75
2023/08/25 11:57:10;;;;;;;6.77;6.10;;;24.20;99.90;;;;;;4971949;28;20541;-75
2023/08/25 11:59:49;;;;;;;6.03;5.40;;;24.70;99.90;;;;;;4970240;28;20952;-75
2023/08/25 12:02:16;;;;;;;7.47;5.97;;;25.50;99.90;;;;;;4967304;28;20267;-75
2023/08/25 12:04:54;;;;;;;5.33;4.83;;;26.40;99.90;;;;;;4974276;28;20800;-76
2023/08/25 12:07:23;;;;;;;5.57;5.10;;;26.30;99.90;;;;;;4976414;28;20471;-76
2023/08/25 12:09:56;;;;;;;4.97;4.67;;;26.20;99.90;;;;;;4966471;28;20766;-76
2023/08/25 12:12:23;;;;;;;5.73;5.33;;;25.90;99.90;;;;;;4971467;28;20988;-76
2023/08/25 12:14:53;;;;;;;5.80;5.30;;;25.50;99.90;;;;;;4972536;28;20420;-77
2023/08/25 12:17:27;;;;;;;5.43;5.00;;;25.20;99.90;;;;;;4970815;28;20466;-76
2023/08/25 12:19:54;;;;;;;5.37;4.93;;;25.00;99.90;;;;;;4969106;28;20493;-76
2023/08/25 12:22:20;;;;;;;6.10;5.70;;;24.90;99.90;;;;;;4970423;28;20435;-76
2023/08/25 12:24:46;;;;;;;6.13;5.63;;;24.80;99.90;;;;;;4974346;28;20437;-76
2023/08/25 12:27:12;;;;;;;7.20;6.07;;;24.70;99.90;;;;;;4992457;28;20242;-76
2023/08/25 12:29:38;;;;;;;6.07;5.53;;;24.60;99.90;;;;;;4970547;28;20545;-76
2023/08/25 12:32:04;;;;;;;6.80;6.23;;;24.60;99.90;;;;;;4972387;28;20435;-76
2023/08/25 12:34:30;;;;;;;6.90;6.20;;;24.70;99.90;;;;;;4971576;28;20263;-76
2023/08/25 12:36:56;;;;;;;6.03;5.53;;;24.60;99.90;;;;;;4971329;28;20463;-76
2023/08/25 12:39:23;;;;;;;6.00;5.50;;;24.60;99.90;;;;;;4966532;28;20448;-76
2023/08/25 12:41:48;;;;;;;6.67;5.97;;;24.70;99.90;;;;;;4967431;28;20956;-76
2023/08/25 12:44:14;;;;;;;6.50;6.00;;;24.80;99.90;;;;;;4972081;28;20446;-76